sensor_id;sensor_type;location;lat;lon;timestamp;P1;durP1;ratioP1;P2;durP2;ratioP2
40967;SDS011;57377;45.130;6.038;2023-02-01T00:01:44;28.13;;;12.57;;
40967;SDS011;57377;45.130;6.038;2023-02-01T00:04:10;26.35;;;11.20;;
40967;SDS011;57377;45.130;6.038;2023-02-01T00:06:35;29.55;;;12.15;;
40967;SDS011;57377;45.130;6.038;2023-02-01T00:09:01;20.60;;;9.80;;
40967;SDS011;57377;45.130;6.038;2023-02-01T00:11:26;27.67;;;11.18;;
40967;SDS011;57377;45.130;6.038;2023-02-01T00:13:52;24.48;;;10.18;;
40967;SDS011;57377;45.130;6.038;2023-02-01T00:16:22;23.00;;;10.85;;
40967;SDS011;57377;45.130;6.038;2023-02-01T00:18:50;28.77;;;11.63;;
40967;SDS011;57377;45.130;6.038;2023-02-01T00:21:17;26.27;;;10.98;;
40967;SDS011;57377;45.130;6.038;2023-02-01T00:23:44;29.63;;;11.43;;
40967;SDS011;57377;45.130;6.038;2023-02-01T00:26:12;32.97;;;13.10;;
40967;SDS011;57377;45.130;6.038;2023-02-01T00:28:41;30.42;;;13.50;;
40967;SDS011;57377;45.130;6.038;2023-02-01T00:31:06;37.40;;;15.55;;
40967;SDS011;57377;45.130;6.038;2023-02-01T00:33:31;40.40;;;17.70;;
40967;SDS011;57377;45.130;6.038;2023-02-01T00:36:05;57.80;;;24.57;;
40967;SDS011;57377;45.130;6.038;2023-02-01T00:38:32;53.03;;;22.33;;
40967;SDS011;57377;45.130;6.038;2023-02-01T00:41:04;51.38;;;20.63;;
40967;SDS011;57377;45.130;6.038;2023-02-01T00:43:31;38.00;;;16.27;;
40967;SDS011;57377;45.130;6.038;2023-02-01T00:45:58;33.35;;;13.00;;
40967;SDS011;57377;45.130;6.038;2023-02-01T00:48:24;34.97;;;14.10;;
40967;SDS011;57377;45.130;6.038;2023-02-01T00:50:50;43.50;;;17.88;;
40967;SDS011;57377;45.130;6.038;2023-02-01T00:53:16;46.92;;;19.92;;
40967;SDS011;57377;45.130;6.038;2023-02-01T00:55:44;38.15;;;17.15;;
40967;SDS011;57377;45.130;6.038;2023-02-01T00:58:10;36.72;;;15.90;;
40967;SDS011;57377;45.130;6.038;2023-02-01T01:00:36;37.58;;;14.50;;
40967;SDS011;57377;45.130;6.038;2023-02-01T01:03:01;41.75;;;19.27;;
40967;SDS011;57377;45.130;6.038;2023-02-01T01:05:27;47.50;;;19.05;;
40967;SDS011;57377;45.130;6.038;2023-02-01T01:07:52;49.38;;;22.33;;
40967;SDS011;57377;45.130;6.038;2023-02-01T01:10:18;52.90;;;21.65;;
40967;SDS011;57377;45.130;6.038;2023-02-01T01:12:44;44.08;;;20.30;;
40967;SDS011;57377;45.130;6.038;2023-02-01T01:15:09;44.17;;;19.15;;
40967;SDS011;57377;45.130;6.038;2023-02-01T01:17:35;42.83;;;18.10;;
40967;SDS011;57377;45.130;6.038;2023-02-01T01:20:01;40.45;;;17.95;;
40967;SDS011;57377;45.130;6.038;2023-02-01T01:22:27;40.20;;;17.10;;
40967;SDS011;57377;45.130;6.038;2023-02-01T01:24:52;34.78;;;16.27;;
40967;SDS011;57377;45.130;6.038;2023-02-01T01:27:17;39.88;;;18.15;;
40967;SDS011;57377;45.130;6.038;2023-02-01T01:29:48;34.53;;;15.63;;
40967;SDS011;57377;45.130;6.038;2023-02-01T01:32:13;44.10;;;17.08;;
40967;SDS011;57377;45.130;6.038;2023-02-01T01:34:38;39.00;;;17.52;;
40967;SDS011;57377;45.130;6.038;2023-02-01T01:37:04;36.33;;;16.67;;
40967;SDS011;57377;45.130;6.038;2023-02-01T01:39:29;38.22;;;16.15;;
40967;SDS011;57377;45.130;6.038;2023-02-01T01:41:55;33.83;;;16.02;;
40967;SDS011;57377;45.130;6.038;2023-02-01T01:47:40;37.97;;;16.30;;
40967;SDS011;57377;45.130;6.038;2023-02-01T01:50:10;36.60;;;15.93;;
40967;SDS011;57377;45.130;6.038;2023-02-01T01:52:37;42.55;;;16.70;;
40967;SDS011;57377;45.130;6.038;2023-02-01T01:55:06;34.38;;;15.13;;
40967;SDS011;57377;45.130;6.038;2023-02-01T01:57:33;38.10;;;16.92;;
40967;SDS011;57377;45.130;6.038;2023-02-01T02:00:11;36.78;;;16.38;;
40967;SDS011;57377;45.130;6.038;2023-02-01T02:02:40;37.40;;;15.70;;
40967;SDS011;57377;45.130;6.038;2023-02-01T02:05:10;30.27;;;14.30;;
40967;SDS011;57377;45.130;6.038;2023-02-01T02:07:37;31.67;;;13.23;;
40967;SDS011;57377;45.130;6.038;2023-02-01T02:10:07;30.52;;;13.93;;
40967;SDS011;57377;45.130;6.038;2023-02-01T02:12:37;30.35;;;13.32;;
40967;SDS011;57377;45.130;6.038;2023-02-01T02:15:04;29.35;;;13.20;;
40967;SDS011;57377;45.130;6.038;2023-02-01T02:36:15;38.25;;;17.40;;
40967;SDS011;57377;45.130;6.038;2023-02-01T02:38:58;39.53;;;16.75;;
40967;SDS011;57377;45.130;6.038;2023-02-01T02:41:33;36.97;;;16.95;;
40967;SDS011;57377;45.130;6.038;2023-02-01T02:50:37;35.58;;;14.57;;
40967;SDS011;57377;45.130;6.038;2023-02-01T02:53:39;34.85;;;14.75;;
40967;SDS011;57377;45.130;6.038;2023-02-01T02:56:53;41.10;;;15.90;;
40967;SDS011;57377;45.130;6.038;2023-02-01T03:00:31;36.15;;;13.95;;
40967;SDS011;57377;45.130;6.038;2023-02-01T03:03:50;33.63;;;14.65;;
40967;SDS011;57377;45.130;6.038;2023-02-01T03:12:59;28.75;;;11.77;;
40967;SDS011;57377;45.130;6.038;2023-02-01T03:15:38;27.33;;;11.93;;
40967;SDS011;57377;45.130;6.038;2023-02-01T03:21:45;25.88;;;11.32;;
40967;SDS011;57377;45.130;6.038;2023-02-01T03:24:40;25.85;;;11.20;;
40967;SDS011;57377;45.130;6.038;2023-02-01T03:27:39;30.55;;;12.95;;
40967;SDS011;57377;45.130;6.038;2023-02-01T04:19:59;27.88;;;12.55;;
40967;SDS011;57377;45.130;6.038;2023-02-01T04:22:33;30.73;;;12.45;;
40967;SDS011;57377;45.130;6.038;2023-02-01T04:24:58;28.15;;;12.48;;
40967;SDS011;57377;45.130;6.038;2023-02-01T04:27:24;27.85;;;12.57;;
40967;SDS011;57377;45.130;6.038;2023-02-01T04:29:50;29.23;;;11.93;;
40967;SDS011;57377;45.130;6.038;2023-02-01T04:32:16;26.05;;;12.15;;
40967;SDS011;57377;45.130;6.038;2023-02-01T04:34:51;28.27;;;12.57;;
40967;SDS011;57377;45.130;6.038;2023-02-01T04:37:16;23.00;;;10.48;;
40967;SDS011;57377;45.130;6.038;2023-02-01T04:39:42;22.63;;;10.93;;
40967;SDS011;57377;45.130;6.038;2023-02-01T04:42:07;25.98;;;11.40;;
40967;SDS011;57377;45.130;6.038;2023-02-01T04:44:33;26.42;;;12.15;;
40967;SDS011;57377;45.130;6.038;2023-02-01T04:47:04;25.02;;;11.88;;
40967;SDS011;57377;45.130;6.038;2023-02-01T04:49:30;28.58;;;12.75;;
40967;SDS011;57377;45.130;6.038;2023-02-01T04:55:20;28.85;;;11.52;;
40967;SDS011;57377;45.130;6.038;2023-02-01T04:58:19;29.75;;;12.63;;
40967;SDS011;57377;45.130;6.038;2023-02-01T05:01:10;29.00;;;12.70;;
40967;SDS011;57377;45.130;6.038;2023-02-01T05:03:53;26.02;;;11.57;;
40967;SDS011;57377;45.130;6.038;2023-02-01T05:06:55;31.83;;;13.40;;
40967;SDS011;57377;45.130;6.038;2023-02-01T05:10:01;30.23;;;11.32;;
40967;SDS011;57377;45.130;6.038;2023-02-01T05:12:49;24.20;;;11.75;;
40967;SDS011;57377;45.130;6.038;2023-02-01T06:22:46;36.53;;;15.00;;
40967;SDS011;57377;45.130;6.038;2023-02-01T06:25:14;26.83;;;12.38;;
40967;SDS011;57377;45.130;6.038;2023-02-01T06:27:39;30.92;;;13.27;;
40967;SDS011;57377;45.130;6.038;2023-02-01T06:30:05;28.25;;;12.95;;
40967;SDS011;57377;45.130;6.038;2023-02-01T06:32:31;36.23;;;15.70;;
40967;SDS011;57377;45.130;6.038;2023-02-01T06:34:57;39.80;;;16.98;;
40967;SDS011;57377;45.130;6.038;2023-02-01T06:37:26;32.25;;;14.13;;
40967;SDS011;57377;45.130;6.038;2023-02-01T06:39:54;31.92;;;14.25;;
40967;SDS011;57377;45.130;6.038;2023-02-01T06:42:19;30.77;;;13.60;;
40967;SDS011;57377;45.130;6.038;2023-02-01T06:44:45;36.03;;;15.45;;
40967;SDS011;57377;45.130;6.038;2023-02-01T06:47:10;29.50;;;14.02;;
40967;SDS011;57377;45.130;6.038;2023-02-01T06:49:36;29.65;;;13.50;;
40967;SDS011;57377;45.130;6.038;2023-02-01T06:52:02;31.75;;;14.10;;
40967;SDS011;57377;45.130;6.038;2023-02-01T06:54:27;34.70;;;15.43;;
40967;SDS011;57377;45.130;6.038;2023-02-01T06:56:54;33.85;;;14.18;;
40967;SDS011;57377;45.130;6.038;2023-02-01T06:59:20;31.75;;;14.55;;
40967;SDS011;57377;45.130;6.038;2023-02-01T07:01:45;37.78;;;15.88;;
40967;SDS011;57377;45.130;6.038;2023-02-01T07:04:11;36.70;;;16.95;;
40967;SDS011;57377;45.130;6.038;2023-02-01T07:06:37;40.58;;;19.85;;
40967;SDS011;57377;45.130;6.038;2023-02-01T07:09:03;29.95;;;13.40;;
40967;SDS011;57377;45.130;6.038;2023-02-01T07:11:29;34.83;;;14.52;;
40967;SDS011;57377;45.130;6.038;2023-02-01T07:13:55;28.08;;;13.70;;
40967;SDS011;57377;45.130;6.038;2023-02-01T07:16:21;40.42;;;17.10;;
40967;SDS011;57377;45.130;6.038;2023-02-01T07:18:46;47.03;;;18.92;;
40967;SDS011;57377;45.130;6.038;2023-02-01T07:21:13;51.08;;;19.25;;
40967;SDS011;57377;45.130;6.038;2023-02-01T07:23:38;43.83;;;17.58;;
40967;SDS011;57377;45.130;6.038;2023-02-01T07:26:04;35.65;;;16.02;;
40967;SDS011;57377;45.130;6.038;2023-02-01T07:31:04;36.85;;;16.58;;
40967;SDS011;57377;45.130;6.038;2023-02-01T07:33:31;35.13;;;14.27;;
40967;SDS011;57377;45.130;6.038;2023-02-01T07:35:56;33.08;;;14.75;;
40967;SDS011;57377;45.130;6.038;2023-02-01T07:38:22;36.45;;;15.05;;
40967;SDS011;57377;45.130;6.038;2023-02-01T07:40:48;31.37;;;13.53;;
40967;SDS011;57377;45.130;6.038;2023-02-01T07:43:14;41.22;;;16.25;;
40967;SDS011;57377;45.130;6.038;2023-02-01T07:45:40;39.45;;;16.02;;
40967;SDS011;57377;45.130;6.038;2023-02-01T07:48:06;32.03;;;14.70;;
40967;SDS011;57377;45.130;6.038;2023-02-01T07:50:31;40.80;;;17.13;;
40967;SDS011;57377;45.130;6.038;2023-02-01T07:53:00;41.60;;;18.52;;
40967;SDS011;57377;45.130;6.038;2023-02-01T07:55:26;44.50;;;19.58;;
40967;SDS011;57377;45.130;6.038;2023-02-01T07:57:52;50.75;;;20.88;;
40967;SDS011;57377;45.130;6.038;2023-02-01T08:00:17;58.17;;;20.63;;
40967;SDS011;57377;45.130;6.038;2023-02-01T08:03:03;45.55;;;17.90;;
40967;SDS011;57377;45.130;6.038;2023-02-01T08:05:29;51.08;;;20.38;;
40967;SDS011;57377;45.130;6.038;2023-02-01T08:07:54;39.22;;;16.23;;
40967;SDS011;57377;45.130;6.038;2023-02-01T08:10:20;37.70;;;15.43;;
40967;SDS011;57377;45.130;6.038;2023-02-01T08:12:46;38.20;;;16.00;;
40967;SDS011;57377;45.130;6.038;2023-02-01T08:15:16;39.17;;;15.75;;
40967;SDS011;57377;45.130;6.038;2023-02-01T08:17:51;31.02;;;14.23;;
40967;SDS011;57377;45.130;6.038;2023-02-01T08:20:17;26.55;;;12.77;;
40967;SDS011;57377;45.130;6.038;2023-02-01T08:22:43;32.50;;;14.07;;
40967;SDS011;57377;45.130;6.038;2023-02-01T08:25:09;34.22;;;16.05;;
40967;SDS011;57377;45.130;6.038;2023-02-01T08:27:36;34.50;;;16.35;;
40967;SDS011;57377;45.130;6.038;2023-02-01T08:30:01;37.92;;;16.60;;
40967;SDS011;57377;45.130;6.038;2023-02-01T08:32:28;30.42;;;13.70;;
40967;SDS011;57377;45.130;6.038;2023-02-01T08:34:53;40.55;;;13.52;;
40967;SDS011;57377;45.130;6.038;2023-02-01T08:37:18;30.10;;;13.30;;
40967;SDS011;57377;45.130;6.038;2023-02-01T08:39:44;25.98;;;12.27;;
40967;SDS011;57377;45.130;6.038;2023-02-01T08:42:10;30.80;;;13.38;;
40967;SDS011;57377;45.130;6.038;2023-02-01T08:44:54;26.23;;;12.20;;
40967;SDS011;57377;45.130;6.038;2023-02-01T08:47:20;19.67;;;9.43;;
40967;SDS011;57377;45.130;6.038;2023-02-01T08:49:46;25.10;;;11.23;;
40967;SDS011;57377;45.130;6.038;2023-02-01T08:52:11;26.20;;;11.80;;
40967;SDS011;57377;45.130;6.038;2023-02-01T08:54:37;27.88;;;11.43;;
40967;SDS011;57377;45.130;6.038;2023-02-01T08:57:04;27.30;;;13.35;;
40967;SDS011;57377;45.130;6.038;2023-02-01T08:59:30;25.27;;;11.95;;
40967;SDS011;57377;45.130;6.038;2023-02-01T09:01:57;29.70;;;12.60;;
40967;SDS011;57377;45.130;6.038;2023-02-01T09:04:25;26.88;;;10.55;;
40967;SDS011;57377;45.130;6.038;2023-02-01T09:06:51;19.88;;;10.38;;
40967;SDS011;57377;45.130;6.038;2023-02-01T09:09:17;21.23;;;10.93;;
40967;SDS011;57377;45.130;6.038;2023-02-01T09:11:42;23.65;;;11.60;;
40967;SDS011;57377;45.130;6.038;2023-02-01T09:14:08;25.27;;;10.98;;
40967;SDS011;57377;45.130;6.038;2023-02-01T09:16:33;21.83;;;10.68;;
40967;SDS011;57377;45.130;6.038;2023-02-01T09:18:58;19.30;;;9.80;;
40967;SDS011;57377;45.130;6.038;2023-02-01T09:21:24;18.77;;;9.85;;
40967;SDS011;57377;45.130;6.038;2023-02-01T09:23:52;21.17;;;10.43;;
40967;SDS011;57377;45.130;6.038;2023-02-01T09:26:18;19.85;;;9.68;;
40967;SDS011;57377;45.130;6.038;2023-02-01T09:28:43;21.23;;;9.82;;
40967;SDS011;57377;45.130;6.038;2023-02-01T09:31:09;24.02;;;10.48;;
40967;SDS011;57377;45.130;6.038;2023-02-01T09:33:34;20.73;;;10.02;;
40967;SDS011;57377;45.130;6.038;2023-02-01T09:36:00;18.52;;;9.57;;
40967;SDS011;57377;45.130;6.038;2023-02-01T09:38:29;20.48;;;9.93;;
40967;SDS011;57377;45.130;6.038;2023-02-01T09:40:55;18.50;;;9.43;;
40967;SDS011;57377;45.130;6.038;2023-02-01T09:43:29;23.15;;;9.50;;
40967;SDS011;57377;45.130;6.038;2023-02-01T09:48:48;22.70;;;10.55;;
40967;SDS011;57377;45.130;6.038;2023-02-01T09:51:23;19.30;;;9.50;;
40967;SDS011;57377;45.130;6.038;2023-02-01T09:54:00;14.85;;;8.60;;
40967;SDS011;57377;45.130;6.038;2023-02-01T09:56:40;22.00;;;11.25;;
40967;SDS011;57377;45.130;6.038;2023-02-01T10:02:14;26.05;;;11.43;;
40967;SDS011;57377;45.130;6.038;2023-02-01T10:04:43;36.50;;;14.25;;
40967;SDS011;57377;45.130;6.038;2023-02-01T10:07:31;39.22;;;14.98;;
40967;SDS011;57377;45.130;6.038;2023-02-01T10:21:04;24.27;;;11.18;;
40967;SDS011;57377;45.130;6.038;2023-02-01T10:26:18;26.40;;;12.10;;
40967;SDS011;57377;45.130;6.038;2023-02-01T10:28:50;26.13;;;11.90;;
40967;SDS011;57377;45.130;6.038;2023-02-01T10:31:22;23.80;;;11.88;;
40967;SDS011;57377;45.130;6.038;2023-02-01T10:33:51;25.17;;;11.05;;
40967;SDS011;57377;45.130;6.038;2023-02-01T10:36:32;55.72;;;18.73;;
40967;SDS011;57377;45.130;6.038;2023-02-01T10:39:08;24.67;;;11.80;;
40967;SDS011;57377;45.130;6.038;2023-02-01T10:41:38;25.90;;;12.32;;
40967;SDS011;57377;45.130;6.038;2023-02-01T10:44:27;21.45;;;10.82;;
40967;SDS011;57377;45.130;6.038;2023-02-01T10:46:54;22.58;;;11.02;;
40967;SDS011;57377;45.130;6.038;2023-02-01T10:49:29;24.38;;;11.02;;
40967;SDS011;57377;45.130;6.038;2023-02-01T10:52:18;23.42;;;10.85;;
40967;SDS011;57377;45.130;6.038;2023-02-01T10:54:56;20.50;;;10.13;;
40967;SDS011;57377;45.130;6.038;2023-02-01T10:58:00;20.27;;;10.05;;
40967;SDS011;57377;45.130;6.038;2023-02-01T11:00:38;20.75;;;9.80;;
40967;SDS011;57377;45.130;6.038;2023-02-01T11:06:44;19.70;;;10.10;;
40967;SDS011;57377;45.130;6.038;2023-02-01T11:09:50;19.33;;;8.77;;
40967;SDS011;57377;45.130;6.038;2023-02-01T11:12:38;16.40;;;8.90;;
40967;SDS011;57377;45.130;6.038;2023-02-01T11:15:20;23.50;;;10.55;;
40967;SDS011;57377;45.130;6.038;2023-02-01T11:17:53;24.25;;;10.20;;
40967;SDS011;57377;45.130;6.038;2023-02-01T11:20:38;20.88;;;10.40;;
40967;SDS011;57377;45.130;6.038;2023-02-01T11:23:44;23.23;;;10.85;;
40967;SDS011;57377;45.130;6.038;2023-02-01T12:55:58;20.67;;;8.60;;
40967;SDS011;57377;45.130;6.038;2023-02-01T13:14:56;13.90;;;6.97;;
40967;SDS011;57377;45.130;6.038;2023-02-01T13:53:38;15.32;;;7.07;;
40967;SDS011;57377;45.130;6.038;2023-02-01T13:56:56;14.85;;;4.82;;
40967;SDS011;57377;45.130;6.038;2023-02-01T14:00:51;9.80;;;4.55;;
40967;SDS011;57377;45.130;6.038;2023-02-01T14:07:36;11.15;;;4.88;;
40967;SDS011;57377;45.130;6.038;2023-02-01T14:11:01;8.18;;;4.95;;
40967;SDS011;57377;45.130;6.038;2023-02-01T14:13:46;10.15;;;4.57;;
40967;SDS011;57377;45.130;6.038;2023-02-01T14:17:37;10.00;;;4.45;;
40967;SDS011;57377;45.130;6.038;2023-02-01T14:20:51;8.02;;;4.28;;
40967;SDS011;57377;45.130;6.038;2023-02-01T14:29:56;8.27;;;4.40;;
40967;SDS011;57377;45.130;6.038;2023-02-01T14:33:28;7.85;;;3.75;;
40967;SDS011;57377;45.130;6.038;2023-02-01T14:36:44;9.00;;;4.07;;
40967;SDS011;57377;45.130;6.038;2023-02-01T14:40:20;12.13;;;4.35;;
40967;SDS011;57377;45.130;6.038;2023-02-01T14:43:00;8.70;;;4.25;;
40967;SDS011;57377;45.130;6.038;2023-02-01T14:46:14;9.98;;;4.68;;
40967;SDS011;57377;45.130;6.038;2023-02-01T14:49:33;9.98;;;4.70;;
40967;SDS011;57377;45.130;6.038;2023-02-01T14:56:34;8.32;;;3.85;;
40967;SDS011;57377;45.130;6.038;2023-02-01T14:59:44;11.23;;;4.57;;
40967;SDS011;57377;45.130;6.038;2023-02-01T15:09:46;9.68;;;4.15;;
40967;SDS011;57377;45.130;6.038;2023-02-01T15:12:27;11.30;;;5.00;;
40967;SDS011;57377;45.130;6.038;2023-02-01T15:15:09;13.38;;;4.40;;
40967;SDS011;57377;45.130;6.038;2023-02-01T15:18:01;9.18;;;3.95;;
40967;SDS011;57377;45.130;6.038;2023-02-01T15:27:05;13.48;;;5.15;;
40967;SDS011;57377;45.130;6.038;2023-02-01T15:30:17;9.07;;;4.45;;
40967;SDS011;57377;45.130;6.038;2023-02-01T15:33:15;12.95;;;6.80;;
40967;SDS011;57377;45.130;6.038;2023-02-01T15:36:39;11.98;;;5.97;;
40967;SDS011;57377;45.130;6.038;2023-02-01T15:41:58;13.05;;;4.90;;
40967;SDS011;57377;45.130;6.038;2023-02-01T15:44:47;9.80;;;5.53;;
40967;SDS011;57377;45.130;6.038;2023-02-01T15:47:19;19.83;;;7.45;;
40967;SDS011;57377;45.130;6.038;2023-02-01T15:49:52;48.15;;;19.73;;
40967;SDS011;57377;45.130;6.038;2023-02-01T15:55:05;16.92;;;6.25;;
40967;SDS011;57377;45.130;6.038;2023-02-01T15:57:48;18.42;;;8.30;;
40967;SDS011;57377;45.130;6.038;2023-02-01T16:00:20;16.92;;;7.30;;
40967;SDS011;57377;45.130;6.038;2023-02-01T16:02:54;17.02;;;7.78;;
40967;SDS011;57377;45.130;6.038;2023-02-01T16:05:38;15.20;;;7.88;;
40967;SDS011;57377;45.130;6.038;2023-02-01T16:08:20;25.67;;;8.20;;
40967;SDS011;57377;45.130;6.038;2023-02-01T16:10:49;14.77;;;7.50;;
40967;SDS011;57377;45.130;6.038;2023-02-01T16:13:17;14.15;;;6.25;;
40967;SDS011;57377;45.130;6.038;2023-02-01T16:15:43;29.88;;;11.30;;
40967;SDS011;57377;45.130;6.038;2023-02-01T16:18:10;10.10;;;5.47;;
40967;SDS011;57377;45.130;6.038;2023-02-01T16:20:41;18.80;;;6.85;;
40967;SDS011;57377;45.130;6.038;2023-02-01T16:23:15;17.15;;;7.57;;
40967;SDS011;57377;45.130;6.038;2023-02-01T16:25:52;15.75;;;8.07;;
40967;SDS011;57377;45.130;6.038;2023-02-01T16:28:26;39.42;;;17.25;;
40967;SDS011;57377;45.130;6.038;2023-02-01T16:30:57;51.45;;;23.10;;
40967;SDS011;57377;45.130;6.038;2023-02-01T16:33:24;14.57;;;6.85;;
40967;SDS011;57377;45.130;6.038;2023-02-01T16:38:22;20.73;;;10.63;;
40967;SDS011;57377;45.130;6.038;2023-02-01T16:47:44;16.52;;;6.35;;
40967;SDS011;57377;45.130;6.038;2023-02-01T16:50:53;16.05;;;7.18;;
40967;SDS011;57377;45.130;6.038;2023-02-01T16:56:57;136.20;;;49.47;;
40967;SDS011;57377;45.130;6.038;2023-02-01T16:59:22;70.97;;;29.33;;
40967;SDS011;57377;45.130;6.038;2023-02-01T17:07:49;20.75;;;8.70;;
40967;SDS011;57377;45.130;6.038;2023-02-01T17:10:52;19.80;;;8.73;;
40967;SDS011;57377;45.130;6.038;2023-02-01T17:13:40;14.85;;;6.72;;
40967;SDS011;57377;45.130;6.038;2023-02-01T17:16:37;16.70;;;6.63;;
40967;SDS011;57377;45.130;6.038;2023-02-01T17:22:00;27.42;;;11.15;;
40967;SDS011;57377;45.130;6.038;2023-02-01T17:25:18;10.23;;;5.82;;
40967;SDS011;57377;45.130;6.038;2023-02-01T17:31:21;12.88;;;5.97;;
40967;SDS011;57377;45.130;6.038;2023-02-01T17:37:05;16.42;;;7.45;;
40967;SDS011;57377;45.130;6.038;2023-02-01T17:40:19;20.33;;;9.05;;
40967;SDS011;57377;45.130;6.038;2023-02-01T17:42:46;15.32;;;6.43;;
40967;SDS011;57377;45.130;6.038;2023-02-01T17:45:55;20.42;;;7.35;;
40967;SDS011;57377;45.130;6.038;2023-02-01T17:48:16;15.15;;;6.55;;
40967;SDS011;57377;45.130;6.038;2023-02-01T17:50:41;14.95;;;6.35;;
40967;SDS011;57377;45.130;6.038;2023-02-01T17:53:10;15.45;;;7.05;;
40967;SDS011;57377;45.130;6.038;2023-02-01T17:55:39;17.50;;;6.50;;
40967;SDS011;57377;45.130;6.038;2023-02-01T17:58:07;31.20;;;21.75;;
40967;SDS011;57377;45.130;6.038;2023-02-01T18:00:38;41.80;;;14.65;;
40967;SDS011;57377;45.130;6.038;2023-02-01T18:03:19;27.48;;;11.80;;
40967;SDS011;57377;45.130;6.038;2023-02-01T18:05:57;23.10;;;8.90;;
40967;SDS011;57377;45.130;6.038;2023-02-01T18:08:27;12.38;;;5.88;;
40967;SDS011;57377;45.130;6.038;2023-02-01T18:11:02;10.05;;;4.80;;
40967;SDS011;57377;45.130;6.038;2023-02-01T18:13:28;14.65;;;6.78;;
40967;SDS011;57377;45.130;6.038;2023-02-01T18:18:23;13.23;;;7.30;;
40967;SDS011;57377;45.130;6.038;2023-02-01T18:20:48;15.70;;;7.32;;
40967;SDS011;57377;45.130;6.038;2023-02-01T18:23:15;15.45;;;6.53;;
40967;SDS011;57377;45.130;6.038;2023-02-01T18:25:46;11.93;;;5.68;;
40967;SDS011;57377;45.130;6.038;2023-02-01T18:28:12;23.77;;;8.43;;
40967;SDS011;57377;45.130;6.038;2023-02-01T18:30:44;29.98;;;12.32;;
40967;SDS011;57377;45.130;6.038;2023-02-01T18:33:15;23.40;;;9.20;;
40967;SDS011;57377;45.130;6.038;2023-02-01T18:35:44;17.50;;;9.98;;
40967;SDS011;57377;45.130;6.038;2023-02-01T18:38:10;11.05;;;5.60;;
40967;SDS011;57377;45.130;6.038;2023-02-01T18:40:38;16.30;;;9.30;;
40967;SDS011;57377;45.130;6.038;2023-02-01T18:43:13;15.15;;;6.05;;
40967;SDS011;57377;45.130;6.038;2023-02-01T18:45:42;15.63;;;7.45;;
40967;SDS011;57377;45.130;6.038;2023-02-01T18:48:12;13.32;;;8.48;;
40967;SDS011;57377;45.130;6.038;2023-02-01T18:50:39;12.20;;;6.50;;
40967;SDS011;57377;45.130;6.038;2023-02-01T18:53:09;10.55;;;5.07;;
40967;SDS011;57377;45.130;6.038;2023-02-01T18:55:50;10.63;;;3.92;;
40967;SDS011;57377;45.130;6.038;2023-02-01T22:44:40;42.33;;;16.73;;
40967;SDS011;57377;45.130;6.038;2023-02-01T22:47:10;57.13;;;22.65;;
40967;SDS011;57377;45.130;6.038;2023-02-01T22:49:41;46.50;;;20.00;;
40967;SDS011;57377;45.130;6.038;2023-02-01T22:52:38;46.20;;;18.88;;
40967;SDS011;57377;45.130;6.038;2023-02-01T22:55:58;35.70;;;15.57;;
40967;SDS011;57377;45.130;6.038;2023-02-01T22:58:37;46.25;;;17.85;;
40967;SDS011;57377;45.130;6.038;2023-02-01T23:04:59;37.10;;;15.15;;
40967;SDS011;57377;45.130;6.038;2023-02-01T23:08:19;38.47;;;15.70;;
40967;SDS011;57377;45.130;6.038;2023-02-01T23:10:58;34.40;;;14.55;;
40967;SDS011;57377;45.130;6.038;2023-02-01T23:13:32;27.02;;;12.48;;
40967;SDS011;57377;45.130;6.038;2023-02-01T23:16:26;32.53;;;13.18;;
40967;SDS011;57377;45.130;6.038;2023-02-01T23:18:56;28.25;;;12.05;;
40967;SDS011;57377;45.130;6.038;2023-02-01T23:21:27;24.55;;;11.18;;
40967;SDS011;57377;45.130;6.038;2023-02-01T23:23:59;21.85;;;9.82;;
40967;SDS011;57377;45.130;6.038;2023-02-01T23:26:47;23.65;;;11.20;;
40967;SDS011;57377;45.130;6.038;2023-02-01T23:29:14;27.73;;;12.40;;
40967;SDS011;57377;45.130;6.038;2023-02-01T23:34:43;23.40;;;10.88;;
40967;SDS011;57377;45.130;6.038;2023-02-01T23:37:36;25.08;;;11.20;;
